Terminal Aerodrome Forecast
Issued by NWS Topeka, KS

Home | Current Version | Previous Version | Text Only | Print | Product List | Glossary Off
Versions: 1 2 3 4 5 6 7 8 9 10 11 12 13 14

000
FTUS43 KTOP 162320
TAFTOP
TAF
KTOP 162320Z 1700/1724 32007KT P6SM FEW250
     FM171200 10008KT P6SM SCT200
     FM171600 11012G21KT P6SM BKN035
     FM172100 12010KT P6SM SCT035=

USA.gov is the U.S. government's official web portal to all federal, state and local government web resources and services.